createdAt,value
2018-11-11T00:00:32.007Z,910.50
2018-11-11T00:01:32.110Z,910.53
2018-11-11T00:02:32.345Z,910.55
2018-11-11T00:03:31.878Z,910.57
2018-11-11T00:04:31.910Z,910.58
2018-11-11T00:05:31.852Z,910.58
2018-11-11T00:06:31.943Z,910.55
2018-11-11T00:07:31.922Z,910.57
2018-11-11T00:09:31.814Z,910.52
2018-11-11T00:10:31.664Z,910.55
2018-11-11T00:11:31.645Z,910.53
2018-11-11T00:12:31.628Z,910.55
2018-11-11T00:13:31.840Z,910.53
2018-11-11T00:14:32.092Z,910.61
2018-11-11T00:15:31.586Z,910.57
2018-11-11T00:16:31.425Z,910.60
2018-11-11T00:17:31.601Z,910.63
2018-11-11T00:18:31.412Z,910.65
2018-11-11T00:19:31.566Z,910.67
2018-11-11T00:20:31.631Z,910.70
2018-11-11T00:21:31.474Z,910.69
2018-11-11T00:22:31.310Z,910.68
2018-11-11T00:23:31.320Z,910.67
2018-11-11T00:24:31.305Z,910.66
2018-11-11T00:25:31.558Z,910.64
2018-11-11T00:26:31.140Z,910.68
2018-11-11T00:27:31.144Z,910.66
2018-11-11T00:28:31.251Z,910.64
2018-11-11T00:29:31.024Z,910.67
2018-11-11T00:30:31.323Z,910.68
2018-11-11T00:32:31.064Z,910.71
2018-11-11T00:33:31.831Z,910.73
2018-11-11T00:34:30.867Z,910.75
2018-11-11T00:35:31.648Z,910.75
2018-11-11T00:36:31.010Z,910.74
2018-11-11T00:37:30.803Z,910.79
2018-11-11T00:38:30.670Z,910.78
2018-11-11T00:39:30.645Z,910.81
2018-11-11T00:40:30.578Z,910.80
2018-11-11T00:41:30.688Z,910.79
2018-11-11T00:42:30.514Z,910.84
2018-11-11T00:43:30.488Z,910.86
2018-11-11T00:44:30.459Z,910.87
2018-11-11T00:45:30.406Z,910.84
2018-11-11T00:46:30.444Z,910.90
2018-11-11T00:47:30.347Z,910.90
2018-11-11T00:48:30.340Z,910.90
2018-11-11T00:49:30.275Z,910.89
2018-11-11T00:50:30.276Z,910.92
2018-11-11T00:51:30.248Z,910.95
2018-11-11T00:52:30.314Z,910.96
2018-11-11T00:53:30.158Z,910.95
2018-11-11T00:54:30.115Z,910.98
2018-11-11T00:55:30.069Z,910.99
2018-11-11T00:56:30.044Z,910.99
2018-11-11T00:57:30.032Z,911.00
2018-11-11T00:58:30.004Z,911.02
2018-11-11T00:59:29.937Z,911.04
2018-11-11T01:00:29.981Z,911.06
2018-11-11T01:01:29.893Z,911.04
2018-11-11T01:02:29.878Z,910.98
2018-11-11T01:03:29.837Z,910.99
2018-11-11T01:04:29.805Z,911.03
2018-11-11T01:05:29.752Z,911.01
2018-11-11T01:06:29.788Z,911.05
2018-11-11T01:07:29.700Z,911.06
2018-11-11T01:08:29.667Z,911.04
2018-11-11T01:09:29.632Z,911.06
2018-11-11T01:10:29.598Z,911.10
2018-11-11T01:11:29.587Z,911.10
2018-11-11T01:12:29.558Z,911.09
2018-11-11T01:13:29.661Z,911.07
2018-11-11T01:14:29.484Z,911.11
2018-11-11T01:15:29.673Z,911.09
2018-11-11T01:16:29.405Z,911.07
2018-11-11T01:17:29.352Z,911.05
2018-11-11T01:18:29.338Z,911.06
2018-11-11T01:19:29.424Z,911.05
2018-11-11T01:20:29.297Z,911.08
2018-11-11T01:21:29.240Z,911.09
2018-11-11T01:22:29.233Z,911.07
2018-11-11T01:23:29.160Z,911.06
2018-11-11T01:24:29.186Z,911.06
2018-11-11T01:25:29.306Z,911.05
2018-11-11T01:26:29.105Z,911.02
2018-11-11T01:27:29.064Z,911.04
2018-11-11T01:28:29.049Z,911.02
2018-11-11T01:29:28.987Z,911.02
2018-11-11T01:30:28.983Z,910.98
2018-11-11T01:31:28.922Z,910.96
2018-11-11T01:32:28.892Z,910.96
2018-11-11T01:33:28.867Z,910.97
2018-11-11T01:34:28.835Z,910.97
2018-11-11T01:35:28.787Z,910.99
2018-11-11T01:36:28.753Z,910.99
2018-11-11T01:37:28.728Z,910.96
2018-11-11T01:38:28.719Z,910.93
2018-11-11T01:39:28.680Z,910.93
2018-11-11T01:40:28.614Z,910.97
2018-11-11T01:41:28.741Z,910.97
2018-11-11T01:42:28.660Z,910.96
2018-11-11T01:43:28.524Z,910.94
2018-11-11T01:44:28.473Z,910.92
2018-11-11T01:45:28.473Z,910.90
2018-11-11T01:46:28.437Z,910.92
2018-11-11T01:47:28.402Z,910.88
2018-11-11T01:48:28.370Z,910.89
2018-11-11T01:49:28.329Z,910.88
2018-11-11T01:50:28.499Z,910.86
2018-11-11T01:51:28.273Z,910.87
2018-11-11T01:52:28.299Z,910.86
2018-11-11T01:53:28.254Z,910.85
2018-11-11T01:54:28.178Z,910.86
2018-11-11T01:55:28.149Z,910.83
2018-11-11T01:56:28.130Z,910.89
2018-11-11T01:57:28.058Z,910.89
2018-11-11T01:59:28.014Z,910.90
2018-11-11T02:00:28.274Z,910.88
2018-11-11T02:01:27.951Z,910.86
2018-11-11T02:02:27.972Z,910.85
2018-11-11T02:03:27.951Z,910.87
2018-11-11T02:04:27.869Z,910.87
2018-11-11T02:05:27.807Z,910.87
2018-11-11T02:06:27.799Z,910.88
2018-11-11T02:07:27.733Z,910.88
2018-11-11T02:08:27.721Z,910.86
2018-11-11T02:09:27.690Z,910.92
2018-11-11T02:10:27.644Z,910.88
2018-11-11T02:11:27.623Z,910.85
2018-11-11T02:12:27.636Z,910.85
2018-11-11T02:13:27.731Z,910.87
2018-11-11T02:14:27.542Z,910.86
2018-11-11T02:15:27.583Z,910.84
2018-11-11T02:16:27.466Z,910.83
2018-11-11T02:17:27.417Z,910.80
2018-11-11T02:18:27.395Z,910.85
2018-11-11T02:19:27.441Z,910.82
2018-11-11T02:20:27.317Z,910.79
2018-11-11T02:21:27.337Z,910.79
2018-11-11T02:22:27.330Z,910.82
2018-11-11T02:23:27.232Z,910.79
2018-11-11T02:24:27.194Z,910.78
2018-11-11T02:25:27.149Z,910.85
2018-11-11T02:26:27.123Z,910.85
2018-11-11T02:27:27.079Z,910.88
2018-11-11T02:28:27.066Z,910.87
2018-11-11T02:29:27.024Z,910.87
2018-11-11T02:30:27.000Z,910.85
2018-11-11T02:31:26.950Z,910.87
2018-11-11T02:32:26.934Z,910.85
2018-11-11T02:33:26.902Z,910.86
2018-11-11T02:34:26.865Z,910.87
2018-11-11T02:35:26.831Z,910.87
2018-11-11T02:36:26.842Z,910.87
2018-11-11T02:37:26.878Z,910.84
2018-11-11T02:38:26.755Z,910.85
2018-11-11T02:39:26.703Z,910.80
2018-11-11T02:40:26.691Z,910.82
2018-11-11T02:41:26.613Z,910.85
2018-11-11T02:42:26.611Z,910.86
2018-11-11T02:43:26.607Z,910.83
2018-11-11T02:44:26.511Z,910.82
2018-11-11T02:45:26.504Z,910.77
2018-11-11T02:46:26.463Z,910.75
2018-11-11T02:47:26.441Z,910.76
2018-11-11T02:48:26.422Z,910.70
2018-11-11T02:49:26.358Z,910.70
2018-11-11T02:50:26.356Z,910.68
2018-11-11T02:51:26.310Z,910.65
2018-11-11T02:52:26.286Z,910.69
2018-11-11T02:53:26.297Z,910.65
2018-11-11T02:54:26.208Z,910.64
2018-11-11T02:55:26.184Z,910.63
2018-11-11T02:56:26.177Z,910.67
2018-11-11T02:57:26.116Z,910.66
2018-11-11T02:58:26.059Z,910.61
2018-11-11T02:59:26.089Z,910.60
2018-11-11T03:00:25.989Z,910.63
2018-11-11T03:01:26.037Z,910.59
2018-11-11T03:02:25.951Z,910.60
2018-11-11T03:03:25.895Z,910.60
2018-11-11T03:04:25.969Z,910.63
2018-11-11T03:05:25.848Z,910.66
2018-11-11T03:06:25.821Z,910.68
2018-11-11T03:07:25.770Z,910.65
2018-11-11T03:08:25.745Z,910.64
2018-11-11T03:09:25.734Z,910.66
2018-11-11T03:10:25.672Z,910.63
2018-11-11T03:11:25.654Z,910.62
2018-11-11T03:12:25.612Z,910.61
2018-11-11T03:13:25.561Z,910.58
2018-11-11T03:14:25.535Z,910.54
2018-11-11T03:15:25.538Z,910.55
2018-11-11T03:16:25.475Z,910.58
2018-11-11T03:17:25.439Z,910.58
2018-11-11T03:18:25.398Z,910.60
2018-11-11T03:19:25.370Z,910.57
2018-11-11T03:20:25.348Z,910.56
2018-11-11T03:21:25.295Z,910.55
2018-11-11T03:22:25.285Z,910.52
2018-11-11T03:23:25.233Z,910.54
2018-11-11T03:24:25.216Z,910.56
2018-11-11T03:25:25.195Z,910.54
2018-11-11T03:26:25.124Z,910.59
2018-11-11T03:27:25.098Z,910.58
2018-11-11T03:28:25.092Z,910.57
2018-11-11T03:29:25.057Z,910.57
2018-11-11T03:30:24.995Z,910.58
2018-11-11T03:31:24.982Z,910.56
2018-11-11T03:32:24.932Z,910.60
2018-11-11T03:33:24.920Z,910.57
2018-11-11T03:34:24.893Z,910.60
2018-11-11T03:35:24.850Z,910.58
2018-11-11T03:36:24.805Z,910.59
2018-11-11T03:37:24.800Z,910.57
2018-11-11T03:38:24.808Z,910.56
2018-11-11T03:39:24.698Z,910.58
2018-11-11T03:40:24.675Z,910.55
2018-11-11T03:41:24.641Z,910.58
2018-11-11T03:42:24.613Z,910.54
2018-11-11T03:43:24.589Z,910.51
2018-11-11T03:44:24.914Z,910.48
2018-11-11T03:45:24.514Z,910.47
2018-11-11T03:46:24.470Z,910.46
2018-11-11T03:47:24.442Z,910.44
2018-11-11T03:48:24.456Z,910.45
2018-11-11T03:49:24.378Z,910.44
2018-11-11T03:50:24.504Z,910.42
2018-11-11T03:51:24.306Z,910.41
2018-11-11T03:52:24.280Z,910.43
2018-11-11T03:53:24.234Z,910.42
2018-11-11T03:54:24.236Z,910.39
2018-11-11T03:55:24.191Z,910.38
2018-11-11T03:56:24.356Z,910.40
2018-11-11T03:57:24.122Z,910.35
2018-11-11T03:58:24.089Z,910.31
2018-11-11T03:59:24.055Z,910.28
2018-11-11T04:00:24.013Z,910.25
2018-11-11T04:01:23.975Z,910.27
2018-11-11T04:02:23.950Z,910.28
2018-11-11T04:03:23.924Z,910.27
2018-11-11T04:04:23.938Z,910.25
2018-11-11T04:05:23.845Z,910.24
2018-11-11T04:06:23.832Z,910.28
2018-11-11T04:07:23.839Z,910.26
2018-11-11T04:08:23.758Z,910.25
2018-11-11T04:09:23.725Z,910.25
2018-11-11T04:10:23.753Z,910.24
2018-11-11T04:11:23.650Z,910.21
2018-11-11T04:12:23.636Z,910.25
2018-11-11T04:13:23.623Z,910.18
2018-11-11T04:14:23.565Z,910.22
2018-11-11T04:15:23.522Z,910.19
2018-11-11T04:16:23.499Z,910.16
2018-11-11T04:17:23.690Z,910.15
2018-11-11T04:18:23.416Z,910.17
2018-11-11T04:19:23.397Z,910.17
2018-11-11T04:20:23.340Z,910.09
2018-11-11T04:21:23.315Z,910.15
2018-11-11T04:22:23.305Z,910.11
2018-11-11T04:23:23.263Z,910.09
2018-11-11T04:24:23.222Z,910.06
2018-11-11T04:25:23.179Z,910.01
2018-11-11T04:26:23.147Z,910.04
2018-11-11T04:27:23.119Z,910.04
2018-11-11T04:28:23.118Z,910.05
2018-11-11T04:29:23.060Z,909.99
2018-11-11T04:30:23.032Z,909.97
2018-11-11T04:31:22.984Z,910.00
2018-11-11T04:32:22.971Z,909.96
2018-11-11T04:33:22.950Z,909.92
2018-11-11T04:34:22.916Z,909.93
2018-11-11T04:35:22.877Z,909.91
2018-11-11T04:36:22.813Z,909.90
2018-11-11T04:37:22.807Z,909.86
2018-11-11T04:38:22.768Z,909.87
2018-11-11T04:39:22.844Z,909.85
2018-11-11T04:40:22.694Z,909.82
2018-11-11T04:41:22.663Z,909.81
2018-11-11T04:42:22.632Z,909.77
2018-11-11T04:43:22.584Z,909.76
2018-11-11T04:44:22.773Z,909.73
2018-11-11T04:45:22.526Z,909.72
2018-11-11T04:46:22.607Z,909.73
2018-11-11T04:47:22.453Z,909.70
2018-11-11T04:48:22.418Z,909.70
2018-11-11T04:49:22.386Z,909.68
2018-11-11T04:50:22.548Z,909.63
2018-11-11T04:51:22.328Z,909.60
2018-11-11T04:52:22.286Z,909.59
2018-11-11T04:53:22.263Z,909.64
2018-11-11T04:54:22.222Z,909.60
2018-11-11T04:55:22.187Z,909.58
2018-11-11T04:56:22.580Z,909.57
2018-11-11T04:57:22.141Z,909.55
2018-11-11T04:58:22.108Z,909.59
2018-11-11T04:59:22.066Z,909.56
2018-11-11T05:00:22.023Z,909.55
2018-11-11T05:01:22.031Z,909.54
2018-11-11T05:02:21.967Z,909.55
2018-11-11T05:03:21.936Z,909.53
2018-11-11T05:04:21.953Z,909.49
2018-11-11T05:05:21.865Z,909.51
2018-11-11T05:06:21.844Z,909.53
2018-11-11T05:07:21.789Z,909.52
2018-11-11T05:08:21.768Z,909.53
2018-11-11T05:09:21.720Z,909.52
2018-11-11T05:10:21.707Z,909.53
2018-11-11T05:11:21.647Z,909.54
2018-11-11T05:12:21.639Z,909.55
2018-11-11T05:13:21.583Z,909.54
2018-11-11T05:14:21.585Z,909.56
2018-11-11T05:15:21.528Z,909.54
2018-11-11T05:16:21.508Z,909.50
2018-11-11T05:17:21.459Z,909.48
2018-11-11T05:18:21.440Z,909.46
2018-11-11T05:19:21.458Z,909.45
2018-11-11T05:20:21.366Z,909.43
2018-11-11T05:21:21.338Z,909.39
2018-11-11T05:22:21.329Z,909.43
2018-11-11T05:23:21.266Z,909.45
2018-11-11T05:24:21.232Z,909.44
2018-11-11T05:25:21.191Z,909.41
2018-11-11T05:26:21.158Z,909.36
2018-11-11T05:27:21.125Z,909.35
2018-11-11T05:28:21.088Z,909.30
2018-11-11T05:29:21.076Z,909.28
2018-11-11T05:30:21.019Z,909.29
2018-11-11T05:31:20.992Z,909.28
2018-11-11T05:32:20.995Z,909.29
2018-11-11T05:33:20.987Z,909.27
2018-11-11T05:34:20.910Z,909.26
2018-11-11T05:35:20.857Z,909.23
2018-11-11T05:36:20.824Z,909.22
2018-11-11T05:37:20.795Z,909.21
2018-11-11T05:38:20.754Z,909.23
2018-11-11T05:39:20.723Z,909.23
2018-11-11T05:40:20.692Z,909.19
2018-11-11T05:41:20.663Z,909.21
2018-11-11T05:42:20.626Z,909.18
2018-11-11T05:43:20.598Z,909.13
2018-11-11T05:44:20.549Z,909.15
2018-11-11T05:45:20.528Z,909.14
2018-11-11T05:46:20.487Z,909.15
2018-11-11T05:47:20.475Z,909.15
2018-11-11T05:48:20.428Z,909.16
2018-11-11T05:49:20.410Z,909.15
2018-11-11T05:50:20.351Z,909.10
2018-11-11T05:51:20.337Z,909.12
2018-11-11T05:52:20.302Z,909.08
2018-11-11T05:53:20.259Z,909.10
2018-11-11T05:54:20.254Z,909.10
2018-11-11T05:55:20.189Z,909.13
2018-11-11T05:56:20.165Z,909.13
2018-11-11T05:57:20.123Z,909.11
2018-11-11T05:58:20.104Z,909.09
2018-11-11T05:59:20.070Z,909.09
2018-11-11T06:00:20.023Z,909.09
2018-11-11T06:01:20.006Z,909.08
2018-11-11T06:02:19.992Z,909.05
2018-11-11T06:03:19.924Z,909.08
2018-11-11T06:04:19.884Z,909.08
2018-11-11T06:05:19.865Z,909.03
2018-11-11T06:06:19.833Z,909.01
2018-11-11T06:07:19.808Z,909.01
2018-11-11T06:08:19.753Z,909.00
2018-11-11T06:09:19.727Z,908.98
2018-11-11T06:10:19.694Z,909.00
2018-11-11T06:11:19.671Z,908.99
2018-11-11T06:12:19.631Z,908.99
2018-11-11T06:13:19.601Z,908.99
2018-11-11T06:14:19.554Z,908.97
2018-11-11T06:15:19.516Z,908.94
2018-11-11T06:16:19.484Z,908.95
2018-11-11T06:17:19.491Z,908.95
2018-11-11T06:18:19.441Z,908.97
2018-11-11T06:19:19.397Z,908.96
2018-11-11T06:20:19.402Z,908.98
2018-11-11T06:21:19.471Z,908.98
2018-11-11T06:22:19.305Z,908.95
2018-11-11T06:23:19.268Z,908.97
2018-11-11T06:24:19.240Z,908.99
2018-11-11T06:25:19.203Z,908.95
2018-11-11T06:26:19.148Z,908.98
2018-11-11T06:27:19.139Z,908.95
2018-11-11T06:28:19.084Z,908.97
2018-11-11T06:29:19.065Z,908.98
2018-11-11T06:30:19.014Z,908.98
2018-11-11T06:31:18.998Z,908.98
2018-11-11T06:32:18.972Z,908.97
2018-11-11T06:33:18.946Z,909.01
2018-11-11T06:34:18.901Z,909.01
2018-11-11T06:35:18.867Z,909.07
2018-11-11T06:36:18.846Z,909.03
2018-11-11T06:37:18.809Z,909.07
2018-11-11T06:38:18.772Z,909.04
2018-11-11T06:39:18.724Z,909.06
2018-11-11T06:40:18.685Z,909.06
2018-11-11T06:41:18.656Z,909.07
2018-11-11T06:42:18.615Z,909.08
2018-11-11T06:43:18.637Z,909.12
2018-11-11T06:44:18.563Z,909.14
2018-11-11T06:45:18.528Z,909.11
2018-11-11T06:46:18.491Z,909.15
2018-11-11T06:47:18.656Z,909.18
2018-11-11T06:48:18.413Z,909.17
2018-11-11T06:49:18.397Z,909.21
2018-11-11T06:50:18.371Z,909.17
2018-11-11T06:51:18.329Z,909.18
2018-11-11T06:52:18.293Z,909.22
2018-11-11T06:53:18.447Z,909.20
2018-11-11T06:54:18.244Z,909.26
2018-11-11T06:55:18.199Z,909.19
2018-11-11T06:56:18.148Z,909.17
2018-11-11T06:57:18.110Z,909.21
2018-11-11T06:58:18.109Z,909.24
2018-11-11T06:59:18.057Z,909.23
2018-11-11T07:00:18.014Z,909.22
2018-11-11T07:01:17.987Z,909.25
2018-11-11T07:02:17.969Z,909.28
2018-11-11T07:03:17.952Z,909.30
2018-11-11T07:04:17.968Z,909.32
2018-11-11T07:05:17.860Z,909.32
2018-11-11T07:06:17.839Z,909.34
2018-11-11T07:07:17.827Z,909.35
2018-11-11T07:08:17.767Z,909.39
2018-11-11T07:09:17.732Z,909.38
2018-11-11T07:10:17.695Z,909.39
2018-11-11T07:11:17.646Z,909.34
2018-11-11T07:12:17.628Z,909.36
2018-11-11T07:13:17.608Z,909.33
2018-11-11T07:14:17.620Z,909.33
2018-11-11T07:15:17.525Z,909.33
2018-11-11T07:16:17.501Z,909.34
2018-11-11T07:17:17.445Z,909.35
2018-11-11T07:18:17.430Z,909.38
2018-11-11T07:19:17.388Z,909.42
2018-11-11T07:20:17.549Z,909.44
2018-11-11T07:21:17.334Z,909.43
2018-11-11T07:22:17.288Z,909.46
2018-11-11T07:23:17.248Z,909.41
2018-11-11T07:24:17.227Z,909.43
2018-11-11T07:25:17.190Z,909.40
2018-11-11T07:26:17.303Z,909.44
2018-11-11T07:27:17.127Z,909.43
2018-11-11T07:28:17.085Z,909.43
2018-11-11T07:29:17.047Z,909.43
2018-11-11T07:30:17.025Z,909.45
2018-11-11T07:32:16.934Z,909.44
2018-11-11T07:33:16.923Z,909.43
2018-11-11T07:34:16.882Z,909.46
2018-11-11T07:35:16.854Z,909.48
2018-11-11T07:36:16.821Z,909.48
2018-11-11T07:37:16.779Z,909.53
2018-11-11T07:38:16.734Z,909.51
2018-11-11T07:39:16.709Z,909.55
2018-11-11T07:40:16.682Z,909.55
2018-11-11T07:41:16.636Z,909.57
2018-11-11T07:42:16.676Z,909.57
2018-11-11T07:43:16.573Z,909.59
2018-11-11T07:44:16.588Z,909.62
2018-11-11T07:45:16.501Z,909.66
2018-11-11T07:46:16.488Z,909.66
2018-11-11T07:47:17.498Z,909.66
2018-11-11T07:48:16.668Z,909.68
2018-11-11T07:49:16.453Z,909.66
2018-11-11T07:50:16.505Z,909.66
2018-11-11T07:51:16.534Z,909.69
2018-11-11T07:52:16.564Z,909.73
2018-11-11T07:53:16.645Z,909.71
2018-11-11T07:54:16.373Z,909.75
2018-11-11T07:55:16.285Z,909.74
2018-11-11T07:56:16.254Z,909.78
2018-11-11T07:57:16.295Z,909.84
2018-11-11T07:58:16.091Z,909.82
2018-11-11T07:59:16.049Z,909.85
2018-11-11T08:00:16.004Z,909.84
2018-11-11T08:01:15.964Z,909.82
2018-11-11T08:02:15.982Z,909.84
2018-11-11T08:03:15.912Z,909.89
2018-11-11T08:04:15.874Z,909.85
2018-11-11T08:05:15.824Z,909.85
2018-11-11T08:06:15.796Z,909.85
2018-11-11T08:07:15.773Z,909.85
2018-11-11T08:08:15.739Z,909.83
2018-11-11T08:09:15.702Z,909.88
2018-11-11T08:10:15.656Z,909.91
2018-11-11T08:11:15.669Z,909.91
2018-11-11T08:12:15.597Z,909.91
2018-11-11T08:13:15.574Z,909.93
2018-11-11T08:14:17.275Z,909.91
2018-11-11T08:15:15.493Z,909.93
2018-11-11T08:16:15.464Z,909.97
2018-11-11T08:17:15.439Z,909.98
2018-11-11T08:18:15.415Z,909.98
2018-11-11T08:19:15.384Z,909.98
2018-11-11T08:20:15.702Z,910.02
2018-11-11T08:21:15.305Z,910.03
2018-11-11T08:22:15.249Z,910.09
2018-11-11T08:23:15.220Z,910.11
2018-11-11T08:24:15.186Z,910.12
2018-11-11T08:25:15.211Z,910.12
2018-11-11T08:26:15.153Z,910.14
2018-11-11T08:27:15.098Z,910.11
2018-11-11T08:28:15.084Z,910.10
2018-11-11T08:29:15.030Z,910.11
2018-11-11T08:30:15.034Z,910.13
2018-11-11T08:31:14.957Z,910.12
2018-11-11T08:32:14.978Z,910.10
2018-11-11T08:33:14.886Z,910.12
2018-11-11T08:34:14.858Z,910.11
2018-11-11T08:35:14.814Z,910.14
2018-11-11T08:36:14.793Z,910.15
2018-11-11T08:37:14.748Z,910.16
2018-11-11T08:38:14.728Z,910.19
2018-11-11T08:39:14.695Z,910.21
2018-11-11T08:40:14.705Z,910.21
2018-11-11T08:41:14.627Z,910.19
2018-11-11T08:42:14.578Z,910.20
2018-11-11T08:43:14.565Z,910.19
2018-11-11T08:44:14.521Z,910.22
2018-11-11T08:45:14.492Z,910.20
2018-11-11T08:47:14.407Z,910.22
2018-11-11T08:48:14.435Z,910.28
2018-11-11T08:49:14.342Z,910.26
2018-11-11T08:50:14.330Z,910.27
2018-11-11T08:51:14.294Z,910.32
2018-11-11T08:52:14.257Z,910.31
2018-11-11T08:53:14.208Z,910.31
2018-11-11T08:54:14.171Z,910.30
2018-11-11T08:55:14.155Z,910.30
2018-11-11T08:56:14.150Z,910.29
2018-11-11T08:57:14.088Z,910.31
2018-11-11T08:58:14.084Z,910.31
2018-11-11T08:59:14.005Z,910.33
2018-11-11T09:00:13.974Z,910.39
2018-11-11T09:01:13.960Z,910.41
2018-11-11T09:02:13.908Z,910.38
2018-11-11T09:03:13.872Z,910.37
2018-11-11T09:04:13.844Z,910.40
2018-11-11T09:05:13.811Z,910.41
2018-11-11T09:06:13.769Z,910.43
2018-11-11T09:07:13.755Z,910.42
2018-11-11T09:08:13.720Z,910.41
2018-11-11T09:09:13.690Z,910.43
2018-11-11T09:10:13.693Z,910.45
2018-11-11T09:11:13.656Z,910.45
2018-11-11T09:12:13.778Z,910.43
2018-11-11T09:13:13.538Z,910.44
2018-11-11T09:14:13.528Z,910.46
2018-11-11T09:15:13.464Z,910.47
2018-11-11T09:16:13.448Z,910.49
2018-11-11T09:17:13.451Z,910.49
2018-11-11T09:18:13.466Z,910.46
2018-11-11T09:19:13.339Z,910.54
2018-11-11T09:20:13.297Z,910.51
2018-11-11T09:21:13.314Z,910.53
2018-11-11T09:22:13.247Z,910.55
2018-11-11T09:23:13.230Z,910.59
2018-11-11T09:24:13.190Z,910.59
2018-11-11T09:25:13.267Z,910.60
2018-11-11T09:26:13.563Z,910.56
2018-11-11T09:27:13.390Z,910.61
2018-11-11T09:29:13.394Z,910.61
2018-11-11T09:30:13.368Z,910.60
2018-11-11T09:31:13.134Z,910.62
2018-11-11T09:32:13.004Z,910.64
2018-11-11T09:33:13.243Z,910.66
2018-11-11T09:34:13.097Z,910.66
2018-11-11T09:35:13.146Z,910.65
2018-11-11T09:36:14.421Z,910.65
2018-11-11T09:37:12.723Z,910.68
2018-11-11T09:38:12.778Z,910.70
2018-11-11T09:39:12.874Z,910.71
2018-11-11T09:40:12.897Z,910.71
2018-11-11T09:41:12.603Z,910.70
2018-11-11T09:42:12.709Z,910.72
2018-11-11T09:43:12.602Z,910.74
2018-11-11T09:44:12.505Z,910.77
2018-11-11T09:45:12.466Z,910.78
2018-11-11T09:46:12.805Z,910.77
2018-11-11T09:47:12.564Z,910.77
2018-11-11T09:48:12.380Z,910.76
2018-11-11T09:49:12.367Z,910.76
2018-11-11T09:50:12.298Z,910.77
2018-11-11T09:51:12.569Z,910.77
2018-11-11T09:52:12.618Z,910.76
2018-11-11T09:53:12.254Z,910.79
2018-11-11T09:54:12.224Z,910.75
2018-11-11T09:55:12.154Z,910.81
2018-11-11T09:56:12.248Z,910.80
2018-11-11T09:57:12.079Z,910.81
2018-11-11T09:58:12.034Z,910.78
2018-11-11T09:59:12.015Z,910.86
2018-11-11T10:00:11.981Z,910.87
2018-11-11T10:01:11.962Z,910.94
2018-11-11T10:02:11.898Z,910.94
2018-11-11T10:03:11.933Z,910.95
2018-11-11T10:04:12.171Z,910.98
2018-11-11T10:05:12.006Z,910.95
2018-11-11T10:06:11.788Z,910.96
2018-11-11T10:07:12.128Z,910.92
2018-11-11T10:08:11.723Z,910.90
2018-11-11T10:09:11.783Z,910.95
2018-11-11T10:10:11.636Z,910.93
2018-11-11T10:11:11.626Z,910.93
2018-11-11T10:12:11.631Z,910.96
2018-11-11T10:13:11.649Z,910.99
2018-11-11T10:14:11.723Z,910.98
2018-11-11T10:15:11.480Z,911.01
2018-11-11T10:16:11.437Z,911.05
2018-11-11T10:17:11.417Z,911.04
2018-11-11T10:18:11.690Z,911.07
2018-11-11T10:19:11.352Z,911.08
2018-11-11T10:20:11.367Z,911.09
2018-11-11T10:21:11.287Z,911.10
2018-11-11T10:22:11.319Z,911.12
2018-11-11T10:23:11.238Z,911.12
2018-11-11T10:24:11.285Z,911.13
2018-11-11T10:25:11.153Z,911.14
2018-11-11T10:26:11.112Z,911.14
2018-11-11T10:27:11.181Z,911.13
2018-11-11T10:28:11.057Z,911.17
2018-11-11T10:29:11.027Z,911.17
2018-11-11T10:30:10.988Z,911.22
2018-11-11T10:31:10.947Z,911.21
2018-11-11T10:32:10.940Z,911.24
2018-11-11T10:33:10.911Z,911.31
2018-11-11T10:34:10.844Z,911.34
2018-11-11T10:35:10.816Z,911.32
2018-11-11T10:36:10.871Z,911.30
2018-11-11T10:37:10.823Z,911.32
2018-11-11T10:38:10.732Z,911.35
2018-11-11T10:39:10.716Z,911.36
2018-11-11T10:40:10.663Z,911.35
2018-11-11T10:41:10.649Z,911.39
2018-11-11T10:42:10.624Z,911.36
2018-11-11T10:43:10.573Z,911.39
2018-11-11T10:44:10.611Z,911.39
2018-11-11T10:45:10.717Z,911.40
2018-11-11T10:46:10.492Z,911.41
2018-11-11T10:47:10.443Z,911.39
2018-11-11T10:48:10.399Z,911.37
2018-11-11T10:49:10.363Z,911.36
2018-11-11T10:50:10.362Z,911.36
2018-11-11T10:51:10.384Z,911.36
2018-11-11T10:52:10.289Z,911.36
2018-11-11T10:53:10.245Z,911.40
2018-11-11T10:54:10.231Z,911.42
2018-11-11T10:55:10.192Z,911.45
2018-11-11T10:56:10.161Z,911.49
2018-11-11T10:57:10.111Z,911.53
2018-11-11T10:58:10.193Z,911.48
2018-11-11T10:59:10.199Z,911.53
2018-11-11T11:00:10.091Z,911.51
2018-11-11T11:01:10.305Z,911.56
2018-11-11T11:02:10.126Z,911.55
2018-11-11T11:03:10.050Z,911.52
2018-11-11T11:04:10.727Z,911.51
2018-11-11T11:05:09.965Z,911.52
2018-11-11T11:06:09.963Z,911.53
2018-11-11T11:07:09.787Z,911.50
2018-11-11T11:08:09.761Z,911.49
2018-11-11T11:09:09.729Z,911.52
2018-11-11T11:10:09.694Z,911.47
2018-11-11T11:11:09.690Z,911.49
2018-11-11T11:12:09.764Z,911.47
2018-11-11T11:13:09.589Z,911.44
2018-11-11T11:14:09.572Z,911.46
2018-11-11T11:15:09.547Z,911.47
2018-11-11T11:16:09.515Z,911.47
2018-11-11T11:17:09.468Z,911.46
2018-11-11T11:18:09.742Z,911.48
2018-11-11T11:19:09.413Z,911.50
2018-11-11T11:20:09.384Z,911.51
2018-11-11T11:21:09.361Z,911.55
2018-11-11T11:22:09.311Z,911.53
2018-11-11T11:23:09.458Z,911.53
2018-11-11T11:24:09.400Z,911.53
2018-11-11T11:25:09.208Z,911.50
2018-11-11T11:26:09.195Z,911.50
2018-11-11T11:27:09.210Z,911.52
2018-11-11T11:28:09.130Z,911.51
2018-11-11T11:29:09.155Z,911.55
2018-11-11T11:30:09.071Z,911.52
2018-11-11T11:31:09.041Z,911.56
2018-11-11T11:32:09.076Z,911.56
2018-11-11T11:33:08.963Z,911.56
2018-11-11T11:34:08.937Z,911.56
2018-11-11T11:35:08.935Z,911.56
2018-11-11T11:36:08.873Z,911.55
2018-11-11T11:37:08.844Z,911.54
2018-11-11T11:38:08.875Z,911.54
2018-11-11T11:39:08.766Z,911.55
2018-11-11T11:40:08.736Z,911.50
2018-11-11T11:41:08.766Z,911.56
2018-11-11T11:42:08.686Z,911.56
2018-11-11T11:43:08.645Z,911.61
2018-11-11T11:44:08.701Z,911.58
2018-11-11T11:45:08.780Z,911.62
2018-11-11T11:46:08.550Z,911.58
2018-11-11T11:47:08.529Z,911.60
2018-11-11T11:48:08.477Z,911.62
2018-11-11T11:49:08.473Z,911.60
2018-11-11T11:50:08.465Z,911.64
2018-11-11T11:51:08.418Z,911.66
2018-11-11T11:52:08.371Z,911.70
2018-11-11T11:53:08.324Z,911.65
2018-11-11T11:54:08.292Z,911.66
2018-11-11T11:55:08.274Z,911.64
2018-11-11T11:56:08.228Z,911.65
2018-11-11T11:57:08.219Z,911.64
2018-11-11T11:58:08.208Z,911.65
2018-11-11T11:59:08.169Z,911.64
2018-11-11T12:00:08.136Z,911.67
2018-11-11T12:01:08.107Z,911.62
2018-11-11T12:02:08.095Z,911.63
2018-11-11T12:03:08.039Z,911.66
2018-11-11T12:04:08.028Z,911.64
2018-11-11T12:05:07.986Z,911.63
2018-11-11T12:06:07.965Z,911.61
2018-11-11T12:07:07.910Z,911.64
2018-11-11T12:08:07.879Z,911.67
2018-11-11T12:09:07.849Z,911.70
2018-11-11T12:10:07.839Z,911.67
2018-11-11T12:11:07.792Z,911.66
2018-11-11T12:12:07.778Z,911.71
2018-11-11T12:13:07.769Z,911.72
2018-11-11T12:14:07.676Z,911.70
2018-11-11T12:15:07.640Z,911.68
2018-11-11T12:16:07.625Z,911.70
2018-11-11T12:17:07.809Z,911.67
2018-11-11T12:18:07.574Z,911.66
2018-11-11T12:19:07.548Z,911.64
2018-11-11T12:20:07.513Z,911.64
2018-11-11T12:21:07.480Z,911.69
2018-11-11T12:22:07.489Z,911.65
2018-11-11T12:23:07.417Z,911.67
2018-11-11T12:24:07.355Z,911.66
2018-11-11T12:25:07.377Z,911.63
2018-11-11T12:26:07.297Z,911.67
2018-11-11T12:27:07.315Z,911.67
2018-11-11T12:28:07.266Z,911.65
2018-11-11T12:30:07.188Z,911.71
2018-11-11T12:31:07.152Z,911.71
2018-11-11T12:32:07.166Z,911.79
2018-11-11T12:33:07.113Z,911.77
2018-11-11T12:34:07.079Z,911.77
2018-11-11T12:35:07.068Z,911.78